createdAt,value
2022-09-01T00:00:30.060Z,18.27
2022-09-01T00:01:27.446Z,18.27
2022-09-01T00:02:27.355Z,18.26
2022-09-01T00:03:24.253Z,18.17
2022-09-01T00:04:27.236Z,18.01
2022-09-01T00:05:24.189Z,18.04
2022-09-01T00:06:23.985Z,17.97
2022-09-01T00:07:21.141Z,17.94
2022-09-01T00:08:19.195Z,18.05
2022-09-01T00:09:19.462Z,18.31
2022-09-01T00:10:16.816Z,18.45
2022-09-01T00:11:13.601Z,18.33
2022-09-01T00:12:10.422Z,18.07
2022-09-01T00:13:08.057Z,17.83
2022-09-01T00:14:12.454Z,17.93
2022-09-01T00:15:25.302Z,17.93
2022-09-01T00:16:22.134Z,17.93
2022-09-01T00:17:18.950Z,17.75
2022-09-01T00:18:15.924Z,17.76
2022-09-01T00:19:12.818Z,18.05
2022-09-01T00:20:10.882Z,18.09
2022-09-01T00:21:09.467Z,18.14
2022-09-01T00:22:07.126Z,18.06
2022-09-01T00:23:03.962Z,18.02
2022-09-01T00:24:01.758Z,17.94
2022-09-01T00:24:58.648Z,18.00
2022-09-01T00:26:15.144Z,17.31
2022-09-01T00:27:12.090Z,17.75
2022-09-01T00:28:09.770Z,17.76
2022-09-01T00:29:07.113Z,18.00
2022-09-01T00:30:04.371Z,17.62
2022-09-01T00:31:01.657Z,18.14
2022-09-01T00:31:59.477Z,18.30
2022-09-01T00:32:56.215Z,17.64
2022-09-01T00:33:53.085Z,18.22
2022-09-01T00:34:49.859Z,18.25
2022-09-01T00:35:46.625Z,18.20
2022-09-01T00:36:44.579Z,18.08
2022-09-01T00:37:42.814Z,17.67
2022-09-01T00:38:40.493Z,17.29
2022-09-01T00:39:37.228Z,17.33
2022-09-01T00:40:34.111Z,16.39
2022-09-01T00:41:34.628Z,17.17
2022-09-01T00:42:31.392Z,17.13
2022-09-01T00:43:45.221Z,17.06
2022-09-01T00:44:42.024Z,17.11
2022-09-01T00:45:38.753Z,17.11
2022-09-01T00:46:55.081Z,17.19
2022-09-01T00:47:52.546Z,17.01
2022-09-01T00:49:05.916Z,17.28
2022-09-01T00:50:06.171Z,17.25
2022-09-01T00:51:04.192Z,17.18
2022-09-01T00:52:06.806Z,17.14
2022-09-01T00:53:08.177Z,17.13
2022-09-01T00:54:08.601Z,17.12
2022-09-01T00:55:14.752Z,17.13
2022-09-01T00:56:13.505Z,17.06
2022-09-01T00:57:12.765Z,17.04
2022-09-01T00:58:19.536Z,16.81
2022-09-01T00:59:20.601Z,16.98
2022-09-01T01:00:23.561Z,16.94
2022-09-01T01:01:20.748Z,17.25
2022-09-01T01:02:17.745Z,17.05
2022-09-01T01:03:14.603Z,16.98
2022-09-01T01:04:17.181Z,16.89
2022-09-01T01:05:15.550Z,16.63
2022-09-01T01:06:17.135Z,16.41
2022-09-01T01:07:16.170Z,16.99
2022-09-01T01:08:13.194Z,16.91
2022-09-01T01:09:10.149Z,16.12
2022-09-01T01:10:08.710Z,16.88
2022-09-01T01:11:10.814Z,16.88
2022-09-01T01:12:11.823Z,17.29
2022-09-01T01:13:15.968Z,17.33
2022-09-01T01:14:15.945Z,16.30
2022-09-01T01:15:13.314Z,17.44
2022-09-01T01:16:15.984Z,17.51
2022-09-01T01:17:13.090Z,17.33
2022-09-01T01:18:11.986Z,17.04
2022-09-01T01:19:41.506Z,17.44
2022-09-01T01:20:56.982Z,17.67
2022-09-01T01:22:12.875Z,16.52
2022-09-01T01:23:27.985Z,17.67
2022-09-01T01:24:32.450Z,17.31
2022-09-01T01:25:48.680Z,17.44
2022-09-01T01:26:47.387Z,17.25
2022-09-01T01:27:44.194Z,17.12
2022-09-01T01:28:44.305Z,17.09
2022-09-01T01:29:41.350Z,17.05
2022-09-01T01:30:41.855Z,16.95
2022-09-01T01:31:38.871Z,17.01
2022-09-01T01:32:36.155Z,16.83
2022-09-01T01:33:43.056Z,16.80
2022-09-01T01:34:42.586Z,16.80
2022-09-01T01:35:39.693Z,17.22
2022-09-01T01:36:38.742Z,17.27
2022-09-01T01:37:36.006Z,17.44
2022-09-01T01:38:32.697Z,17.35
2022-09-01T01:39:29.429Z,17.02
2022-09-01T01:40:29.109Z,16.93
2022-09-01T01:41:26.960Z,16.91
2022-09-01T01:42:25.184Z,16.90
2022-09-01T01:43:23.980Z,16.72
2022-09-01T01:44:25.150Z,16.84
2022-09-01T01:45:24.852Z,16.95
2022-09-01T01:46:21.855Z,16.93
2022-09-01T01:47:20.636Z,17.18
2022-09-01T01:48:22.851Z,17.42
2022-09-01T01:49:24.501Z,17.14
2022-09-01T01:50:27.814Z,17.61
2022-09-01T01:51:28.504Z,17.59
2022-09-01T01:52:26.196Z,17.67
2022-09-01T01:53:24.216Z,17.58
2022-09-01T01:54:20.967Z,17.51
2022-09-01T01:55:19.401Z,17.04
2022-09-01T01:56:18.421Z,17.21
2022-09-01T01:57:17.960Z,16.63
2022-09-01T01:58:15.681Z,16.95
2022-09-01T01:59:14.843Z,16.96
2022-09-01T02:00:12.245Z,17.18
2022-09-01T02:01:12.751Z,17.27
2022-09-01T02:02:09.906Z,17.18
2022-09-01T02:03:07.534Z,17.03
2022-09-01T02:04:05.296Z,16.91
2022-09-01T02:05:02.058Z,16.83
2022-09-01T02:06:04.728Z,16.65
2022-09-01T02:07:01.749Z,16.60
2022-09-01T02:08:04.669Z,16.71
2022-09-01T02:09:03.097Z,16.72
2022-09-01T02:10:01.933Z,16.45
2022-09-01T02:11:00.195Z,16.62
2022-09-01T02:11:57.372Z,16.87
2022-09-01T02:12:54.151Z,16.83
2022-09-01T02:13:56.211Z,16.81
2022-09-01T02:14:55.381Z,17.00
2022-09-01T02:15:55.737Z,16.93
2022-09-01T02:16:56.069Z,16.03
2022-09-01T02:18:00.701Z,16.83
2022-09-01T02:19:07.267Z,16.78
2022-09-01T02:20:04.254Z,16.60
2022-09-01T02:21:01.672Z,16.63
2022-09-01T02:22:00.310Z,16.82
2022-09-01T02:22:57.157Z,16.77
2022-09-01T02:24:02.033Z,16.83
2022-09-01T02:25:00.971Z,16.89
2022-09-01T02:26:16.250Z,16.71
2022-09-01T02:27:15.114Z,16.62
2022-09-01T02:28:18.381Z,16.60
2022-09-01T02:29:21.950Z,16.63
2022-09-01T02:30:19.037Z,16.55
2022-09-01T02:31:15.835Z,16.61
2022-09-01T02:32:12.616Z,16.20
2022-09-01T02:33:09.354Z,16.64
2022-09-01T02:34:13.865Z,16.73
2022-09-01T02:35:11.559Z,16.77
2022-09-01T02:36:13.323Z,16.69
2022-09-01T02:37:10.098Z,16.57
2022-09-01T02:38:08.794Z,16.74
2022-09-01T02:39:06.181Z,17.02
2022-09-01T02:40:10.189Z,16.97
2022-09-01T02:41:07.907Z,17.37
2022-09-01T02:42:05.067Z,17.37
2022-09-01T02:43:01.883Z,17.38
2022-09-01T02:44:02.387Z,17.06
2022-09-01T02:44:59.313Z,17.01
2022-09-01T02:46:02.561Z,16.61
2022-09-01T02:47:01.815Z,16.90
2022-09-01T02:47:59.016Z,16.81
2022-09-01T02:48:56.225Z,16.85
2022-09-01T02:49:53.292Z,16.93
2022-09-01T02:50:51.087Z,16.87
2022-09-01T02:51:53.916Z,17.03
2022-09-01T02:52:54.829Z,16.94
2022-09-01T02:53:52.695Z,16.56
2022-09-01T02:54:50.721Z,16.76
2022-09-01T02:55:47.530Z,16.33
2022-09-01T02:56:49.846Z,16.94
2022-09-01T02:57:48.451Z,16.84
2022-09-01T02:58:46.762Z,16.83
2022-09-01T02:59:43.994Z,16.83
2022-09-01T03:00:41.001Z,15.52
2022-09-01T03:01:37.914Z,16.58
2022-09-01T03:02:35.975Z,16.67
2022-09-01T03:03:35.770Z,16.62
2022-09-01T03:04:35.047Z,16.75
2022-09-01T03:05:34.551Z,16.79
2022-09-01T03:06:34.231Z,16.50
2022-09-01T03:07:32.024Z,16.38
2022-09-01T03:08:28.738Z,16.74
2022-09-01T03:09:25.497Z,16.95
2022-09-01T03:10:29.037Z,16.90
2022-09-01T03:11:28.101Z,16.98
2022-09-01T03:12:24.904Z,17.01
2022-09-01T03:13:23.976Z,16.94
2022-09-01T03:14:22.380Z,17.22
2022-09-01T03:15:19.277Z,17.10
2022-09-01T03:16:16.710Z,16.91
2022-09-01T03:17:14.151Z,15.53
2022-09-01T03:18:12.917Z,16.42
2022-09-01T03:19:12.094Z,16.36
2022-09-01T03:20:09.099Z,16.42
2022-09-01T03:21:08.401Z,16.92
2022-09-01T03:22:05.199Z,17.03
2022-09-01T03:23:05.001Z,16.62
2022-09-01T03:24:03.731Z,15.72
2022-09-01T03:25:00.499Z,16.42
2022-09-01T03:25:58.320Z,16.00
2022-09-01T03:26:55.929Z,16.28
2022-09-01T03:27:53.242Z,16.38
2022-09-01T03:28:52.269Z,16.21
2022-09-01T03:29:49.066Z,16.20
2022-09-01T03:30:52.491Z,16.39
2022-09-01T03:31:49.477Z,16.37
2022-09-01T03:32:47.834Z,16.33
2022-09-01T03:33:44.571Z,16.32
2022-09-01T03:34:41.508Z,16.33
2022-09-01T03:35:38.569Z,16.34
2022-09-01T03:36:35.418Z,15.27
2022-09-01T03:37:32.206Z,16.06
2022-09-01T03:38:29.535Z,16.18
2022-09-01T03:39:26.330Z,16.03
2022-09-01T03:40:23.225Z,16.14
2022-09-01T03:41:25.027Z,16.09
2022-09-01T03:42:25.908Z,15.51
2022-09-01T03:43:27.638Z,16.36
2022-09-01T03:44:35.347Z,16.20
2022-09-01T03:45:38.407Z,16.10
2022-09-01T03:46:37.151Z,15.86
2022-09-01T03:47:36.114Z,16.17
2022-09-01T03:48:32.917Z,16.15
2022-09-01T03:49:29.654Z,16.18
2022-09-01T03:50:28.139Z,16.30
2022-09-01T03:51:26.440Z,16.29
2022-09-01T03:52:27.752Z,16.26
2022-09-01T03:53:27.375Z,16.35
2022-09-01T03:54:30.447Z,16.20
2022-09-01T03:55:31.116Z,16.37
2022-09-01T03:56:29.829Z,16.08
2022-09-01T03:57:26.877Z,16.38
2022-09-01T03:58:29.191Z,16.26
2022-09-01T03:59:28.504Z,16.30
2022-09-01T04:00:29.958Z,16.02
2022-09-01T04:01:38.085Z,16.02
2022-09-01T04:02:34.951Z,16.41
2022-09-01T04:03:34.581Z,16.50
2022-09-01T04:04:33.173Z,15.94
2022-09-01T04:05:33.925Z,16.54
2022-09-01T04:06:31.034Z,16.56
2022-09-01T04:07:28.969Z,16.51
2022-09-01T04:08:32.515Z,15.97
2022-09-01T04:09:29.729Z,16.39
2022-09-01T04:10:26.797Z,16.29
2022-09-01T04:11:24.161Z,16.24
2022-09-01T04:12:21.050Z,16.34
2022-09-01T04:13:26.186Z,16.35
2022-09-01T04:14:25.565Z,16.34
2022-09-01T04:15:24.181Z,16.37
2022-09-01T04:16:49.507Z,15.68
2022-09-01T04:18:06.410Z,16.32
2022-09-01T04:19:16.023Z,16.04
2022-09-01T04:20:13.098Z,16.30
2022-09-01T04:21:10.552Z,16.40
2022-09-01T04:22:08.135Z,16.19
2022-09-01T04:23:10.822Z,16.16
2022-09-01T04:24:09.077Z,16.21
2022-09-01T04:25:06.796Z,16.14
2022-09-01T04:26:08.973Z,16.13
2022-09-01T04:27:09.026Z,15.47
2022-09-01T04:28:17.651Z,16.19
2022-09-01T04:29:18.665Z,16.24
2022-09-01T04:30:15.474Z,16.09
2022-09-01T04:31:18.730Z,16.03
2022-09-01T04:32:15.850Z,15.43
2022-09-01T04:33:13.134Z,15.64
2022-09-01T04:34:13.932Z,16.19
2022-09-01T04:35:16.875Z,16.25
2022-09-01T04:36:27.537Z,16.16
2022-09-01T04:37:24.344Z,16.34
2022-09-01T04:38:23.501Z,15.94
2022-09-01T04:39:20.940Z,15.86
2022-09-01T04:40:36.388Z,16.54
2022-09-01T04:41:33.373Z,16.31
2022-09-01T04:42:32.662Z,16.06
2022-09-01T04:43:29.842Z,16.40
2022-09-01T04:44:26.794Z,16.40
2022-09-01T04:45:28.846Z,16.42
2022-09-01T04:46:29.565Z,16.55
2022-09-01T04:47:36.276Z,16.57
2022-09-01T04:48:35.994Z,16.22
2022-09-01T04:49:33.829Z,16.44
2022-09-01T04:50:31.053Z,16.27
2022-09-01T04:51:28.125Z,16.45
2022-09-01T04:52:25.374Z,16.40
2022-09-01T04:53:25.017Z,16.29
2022-09-01T04:54:25.410Z,15.73
2022-09-01T04:55:22.320Z,16.53
2022-09-01T04:56:23.191Z,16.66
2022-09-01T04:57:20.535Z,16.65
2022-09-01T04:58:18.883Z,16.70
2022-09-01T04:59:17.272Z,16.40
2022-09-01T05:00:24.552Z,16.43
2022-09-01T05:01:25.016Z,16.44
2022-09-01T05:02:27.239Z,16.44
2022-09-01T05:03:24.525Z,16.25
2022-09-01T05:04:27.470Z,16.50
2022-09-01T05:05:24.318Z,16.41
2022-09-01T05:06:21.014Z,16.25
2022-09-01T05:07:17.948Z,16.36
2022-09-01T05:08:23.384Z,16.39
2022-09-01T05:09:21.813Z,15.73
2022-09-01T05:10:23.475Z,16.75
2022-09-01T05:11:21.048Z,16.73
2022-09-01T05:12:23.235Z,16.80
2022-09-01T05:13:22.762Z,16.85
2022-09-01T05:14:21.467Z,16.86
2022-09-01T05:15:18.329Z,17.00
2022-09-01T05:16:24.897Z,16.68
2022-09-01T05:17:22.343Z,16.76
2022-09-01T05:18:28.215Z,16.56
2022-09-01T05:19:25.839Z,17.18
2022-09-01T05:20:22.636Z,17.25
2022-09-01T05:21:24.726Z,17.33
2022-09-01T05:22:22.291Z,17.43
2022-09-01T05:23:20.732Z,17.47
2022-09-01T05:24:21.705Z,17.17
2022-09-01T05:25:18.592Z,16.61
2022-09-01T05:26:19.542Z,17.03
2022-09-01T05:27:18.082Z,17.33
2022-09-01T05:28:17.910Z,17.49
2022-09-01T05:29:17.516Z,17.36
2022-09-01T05:30:16.885Z,16.58
2022-09-01T05:31:14.941Z,17.40
2022-09-01T05:32:12.605Z,17.25
2022-09-01T05:33:11.809Z,16.89
2022-09-01T05:34:09.971Z,17.19
2022-09-01T05:35:09.205Z,17.27
2022-09-01T05:36:08.558Z,17.37
2022-09-01T05:37:08.526Z,16.96
2022-09-01T05:38:05.293Z,16.89
2022-09-01T05:39:04.890Z,16.99
2022-09-01T05:40:02.650Z,17.41
2022-09-01T05:41:03.174Z,17.33
2022-09-01T05:42:01.606Z,17.58
2022-09-01T05:42:59.371Z,17.03
2022-09-01T05:44:00.557Z,16.82
2022-09-01T05:44:58.535Z,17.33
2022-09-01T05:46:06.513Z,17.40
2022-09-01T05:47:05.454Z,17.55
2022-09-01T05:48:03.222Z,16.87
2022-09-01T05:49:00.402Z,17.13
2022-09-01T05:49:58.496Z,17.42
2022-09-01T05:50:58.046Z,17.65
2022-09-01T05:51:59.002Z,17.64
2022-09-01T05:52:56.039Z,17.52
2022-09-01T05:53:59.349Z,16.94
2022-09-01T05:55:00.146Z,16.97
2022-09-01T05:55:59.478Z,16.98
2022-09-01T05:57:17.504Z,17.01
2022-09-01T05:58:17.398Z,17.42
2022-09-01T05:59:23.309Z,17.14
2022-09-01T06:00:20.967Z,17.24
2022-09-01T06:01:22.252Z,17.05
2022-09-01T06:02:23.002Z,16.93
2022-09-01T06:03:25.000Z,16.60
2022-09-01T06:04:25.455Z,16.61
2022-09-01T06:05:22.402Z,17.07
2022-09-01T06:06:21.874Z,17.15
2022-09-01T06:07:25.367Z,17.10
2022-09-01T06:08:25.285Z,17.09
2022-09-01T06:09:23.478Z,17.23
2022-09-01T06:10:20.367Z,17.22
2022-09-01T06:11:18.682Z,17.25
2022-09-01T06:12:18.456Z,17.25
2022-09-01T06:13:16.987Z,17.59
2022-09-01T06:14:16.152Z,17.61
2022-09-01T06:15:16.113Z,17.42
2022-09-01T06:16:18.121Z,17.33
2022-09-01T06:17:19.599Z,18.24
2022-09-01T06:18:17.966Z,18.45
2022-09-01T06:19:14.749Z,18.02
2022-09-01T06:20:11.597Z,18.49
2022-09-01T06:21:08.510Z,18.59
2022-09-01T06:22:05.889Z,18.35
2022-09-01T06:23:03.071Z,18.30
2022-09-01T06:24:00.025Z,18.09
2022-09-01T06:25:02.373Z,18.21
2022-09-01T06:25:59.893Z,18.32
2022-09-01T06:26:56.624Z,18.65
2022-09-01T06:27:54.129Z,18.89
2022-09-01T06:28:55.073Z,18.59
2022-09-01T06:29:58.286Z,19.00
2022-09-01T06:30:57.321Z,18.83
2022-09-01T06:31:54.088Z,18.93
2022-09-01T06:32:51.699Z,18.16
2022-09-01T06:33:49.930Z,18.82
2022-09-01T06:34:51.455Z,19.14
2022-09-01T06:35:48.250Z,19.23
2022-09-01T06:36:48.532Z,19.00
2022-09-01T06:37:48.461Z,18.86
2022-09-01T06:38:45.411Z,19.01
2022-09-01T06:39:42.361Z,19.02
2022-09-01T06:40:41.741Z,19.14
2022-09-01T06:41:39.582Z,18.99
2022-09-01T06:42:37.855Z,19.27
2022-09-01T06:43:34.621Z,19.47
2022-09-01T06:44:32.072Z,19.53
2022-09-01T06:45:28.815Z,19.48
2022-09-01T06:46:28.102Z,19.32
2022-09-01T06:47:25.025Z,19.50
2022-09-01T06:48:23.577Z,19.74
2022-09-01T06:49:21.580Z,19.04
2022-09-01T06:51:38.741Z,18.97
2022-09-01T06:53:56.745Z,19.53
2022-09-01T06:54:55.046Z,19.73
2022-09-01T06:55:53.420Z,19.61
2022-09-01T06:56:51.953Z,19.37
2022-09-01T06:58:13.948Z,19.46
2022-09-01T06:59:11.477Z,20.20
2022-09-01T07:00:18.761Z,20.26
2022-09-01T07:01:20.325Z,20.34
2022-09-01T07:02:18.627Z,20.47
2022-09-01T07:03:15.891Z,20.66
2022-09-01T07:04:13.324Z,20.71
2022-09-01T07:05:59.700Z,20.79
2022-09-01T07:08:05.306Z,20.42
2022-09-01T07:10:24.473Z,20.26
2022-09-01T07:13:06.649Z,20.46
2022-09-01T07:14:22.059Z,19.75
2022-09-01T07:16:51.794Z,19.79
2022-09-01T07:18:14.268Z,20.22
2022-09-01T07:19:15.084Z,20.31
2022-09-01T07:20:27.639Z,20.15
2022-09-01T07:22:06.339Z,19.86
2022-09-01T07:24:11.234Z,20.06
2022-09-01T07:25:12.881Z,20.42
2022-09-01T07:26:11.783Z,20.31
2022-09-01T07:27:09.575Z,20.26
2022-09-01T07:28:08.724Z,20.43
2022-09-01T07:29:07.366Z,20.24
2022-09-01T07:30:07.549Z,20.30
2022-09-01T07:33:44.206Z,20.74
2022-09-01T07:34:41.456Z,19.86
2022-09-01T07:36:24.977Z,20.04
2022-09-01T07:38:03.559Z,20.50
2022-09-01T07:39:52.167Z,20.50
2022-09-01T07:43:32.616Z,20.00
2022-09-01T07:44:30.825Z,20.93
2022-09-01T07:45:28.716Z,21.14
2022-09-01T07:46:41.288Z,21.19
2022-09-01T07:47:54.198Z,20.93
2022-09-01T07:49:28.872Z,20.81
2022-09-01T07:50:37.407Z,21.11
2022-09-01T07:51:36.508Z,21.34
2022-09-01T07:52:42.495Z,21.22
2022-09-01T07:53:39.397Z,21.10
2022-09-01T07:54:37.416Z,21.12
2022-09-01T07:55:34.812Z,20.97
2022-09-01T07:56:33.394Z,20.86
2022-09-01T07:57:32.057Z,21.19
2022-09-01T07:58:30.191Z,21.69
2022-09-01T07:59:29.473Z,21.12
2022-09-01T08:00:31.128Z,21.66
2022-09-01T08:01:28.740Z,21.96
2022-09-01T08:02:28.079Z,21.84
2022-09-01T08:03:26.027Z,21.91
2022-09-01T08:04:23.218Z,21.98
2022-09-01T08:05:26.884Z,22.06
2022-09-01T08:06:27.866Z,21.87
2022-09-01T08:07:24.967Z,22.19
2022-09-01T08:08:26.245Z,22.08
2022-09-01T08:09:37.862Z,21.60
2022-09-01T08:10:40.450Z,22.29
2022-09-01T08:12:00.995Z,22.15
2022-09-01T08:12:57.353Z,21.82
2022-09-01T08:13:55.270Z,22.32
2022-09-01T08:15:13.939Z,22.17
2022-09-01T08:16:18.915Z,22.57
2022-09-01T08:17:17.153Z,22.41
2022-09-01T08:18:14.956Z,21.71
2022-09-01T08:19:18.870Z,22.21
2022-09-01T08:20:15.643Z,22.38
2022-09-01T08:21:12.933Z,22.27
2022-09-01T08:22:09.741Z,21.58
2022-09-01T08:23:07.383Z,22.30
2022-09-01T08:24:04.222Z,22.33
2022-09-01T08:25:01.057Z,22.32
2022-09-01T08:25:57.802Z,22.44
2022-09-01T08:26:54.606Z,22.29
2022-09-01T08:27:59.734Z,22.13
2022-09-01T08:28:56.977Z,22.46
2022-09-01T08:29:53.811Z,22.58
2022-09-01T08:30:52.602Z,22.73
2022-09-01T08:31:49.530Z,22.87
2022-09-01T08:32:46.270Z,22.95
2022-09-01T08:33:45.205Z,22.70
2022-09-01T08:34:43.532Z,22.62
2022-09-01T08:35:43.479Z,22.81
2022-09-01T08:36:40.268Z,22.25
2022-09-01T08:37:38.246Z,22.42
2022-09-01T08:38:35.191Z,22.86
2022-09-01T08:39:32.856Z,22.76
2022-09-01T08:40:30.447Z,23.12
2022-09-01T08:41:47.160Z,23.01
2022-09-01T08:42:59.091Z,23.19
2022-09-01T08:44:15.414Z,23.37
2022-09-01T08:45:34.067Z,23.46
2022-09-01T08:46:35.465Z,23.30
2022-09-01T08:48:28.717Z,23.14
2022-09-01T08:49:30.096Z,23.43
2022-09-01T08:50:27.278Z,23.23
2022-09-01T08:52:17.778Z,23.53
2022-09-01T08:53:36.297Z,23.52
2022-09-01T08:55:05.655Z,23.70
2022-09-01T08:56:02.745Z,23.60
2022-09-01T08:57:09.948Z,23.67
2022-09-01T08:58:11.093Z,23.64
2022-09-01T08:59:10.686Z,23.72
2022-09-01T09:00:12.811Z,23.70
2022-09-01T09:02:12.032Z,23.71
2022-09-01T09:03:50.417Z,23.81
2022-09-01T09:05:20.854Z,23.90
2022-09-01T09:06:33.635Z,23.68
2022-09-01T09:08:07.827Z,23.64
2022-09-01T09:09:08.023Z,23.98
2022-09-01T09:10:37.700Z,23.97
2022-09-01T09:11:43.362Z,24.00
2022-09-01T09:13:13.254Z,23.62
2022-09-01T09:14:11.736Z,24.12
2022-09-01T09:15:17.468Z,24.16
2022-09-01T09:16:36.989Z,24.29
2022-09-01T09:17:41.975Z,24.24
2022-09-01T09:18:59.836Z,24.17
2022-09-01T09:19:56.627Z,24.16
2022-09-01T09:20:53.460Z,24.05
2022-09-01T09:21:54.145Z,23.77
2022-09-01T09:22:51.096Z,23.98
2022-09-01T09:23:56.202Z,24.14
2022-09-01T09:25:00.427Z,24.23
2022-09-01T09:25:57.605Z,24.30
2022-09-01T09:26:58.899Z,24.29
2022-09-01T09:28:02.793Z,24.34
2022-09-01T09:28:59.693Z,24.34
2022-09-01T09:29:58.182Z,24.43
2022-09-01T09:31:25.866Z,24.39
2022-09-01T09:32:44.930Z,24.35
2022-09-01T09:33:51.614Z,24.49
2022-09-01T09:34:49.803Z,24.39
2022-09-01T09:35:47.576Z,24.67
2022-09-01T09:36:52.367Z,24.36
2022-09-01T09:37:51.633Z,24.09
2022-09-01T09:39:05.774Z,24.40
2022-09-01T09:40:29.904Z,24.61
2022-09-01T09:41:27.533Z,24.32
2022-09-01T09:42:31.247Z,24.59
2022-09-01T09:43:42.699Z,24.66
2022-09-01T09:44:48.191Z,24.76
2022-09-01T09:45:46.029Z,24.76
2022-09-01T09:46:45.881Z,24.80
2022-09-01T09:47:46.728Z,24.85
2022-09-01T09:48:43.497Z,24.69
2022-09-01T09:49:44.220Z,24.82
2022-09-01T09:50:44.053Z,24.94
2022-09-01T09:51:44.987Z,24.16
2022-09-01T09:52:41.732Z,24.93
2022-09-01T09:53:39.189Z,24.96
2022-09-01T09:54:38.615Z,24.60
2022-09-01T09:55:35.409Z,25.05
2022-09-01T09:56:33.188Z,25.00
2022-09-01T09:57:32.408Z,25.10
2022-09-01T09:58:42.940Z,25.12
2022-09-01T10:00:01.869Z,25.25
2022-09-01T10:01:17.758Z,25.29
2022-09-01T10:02:32.709Z,25.24
2022-09-01T10:04:07.999Z,25.34
2022-09-01T10:05:30.137Z,25.40
2022-09-01T10:06:34.739Z,25.49
2022-09-01T10:07:38.126Z,25.15
2022-09-01T10:08:45.596Z,25.43
2022-09-01T10:09:42.533Z,25.32
2022-09-01T10:10:39.252Z,25.38
2022-09-01T10:11:48.936Z,25.38
2022-09-01T10:12:46.032Z,25.09
2022-09-01T10:13:42.840Z,25.38
2022-09-01T10:14:53.435Z,25.46
2022-09-01T10:15:54.864Z,25.27
2022-09-01T10:17:03.818Z,25.23
2022-09-01T10:18:33.213Z,25.01
2022-09-01T10:19:35.881Z,25.39
2022-09-01T10:20:37.464Z,25.36
2022-09-01T10:21:40.598Z,24.76
2022-09-01T10:22:40.169Z,25.48
2022-09-01T10:23:39.136Z,25.66
2022-09-01T10:24:44.736Z,25.39
2022-09-01T10:25:44.523Z,25.34
2022-09-01T10:26:46.940Z,25.48
2022-09-01T10:27:50.110Z,25.53
2022-09-01T10:28:56.359Z,25.66
2022-09-01T10:30:19.549Z,25.68
2022-09-01T10:31:17.483Z,25.63
2022-09-01T10:32:35.207Z,25.63
2022-09-01T10:33:36.985Z,25.63
2022-09-01T10:34:38.387Z,25.49
2022-09-01T10:35:40.578Z,25.13
2022-09-01T10:36:38.282Z,25.79
2022-09-01T10:37:35.588Z,25.92
2022-09-01T10:38:32.510Z,25.98
2022-09-01T10:39:31.104Z,25.96
2022-09-01T10:40:31.698Z,25.99
2022-09-01T10:41:53.270Z,26.01
2022-09-01T10:43:18.926Z,25.62
2022-09-01T10:44:35.644Z,25.92
2022-09-01T10:45:39.321Z,26.00
2022-09-01T10:46:49.073Z,26.02
2022-09-01T10:47:47.616Z,25.97
2022-09-01T10:48:55.344Z,26.08
2022-09-01T10:49:52.798Z,26.02
2022-09-01T10:50:55.647Z,26.03
2022-09-01T10:51:56.325Z,25.92
2022-09-01T10:52:57.443Z,26.10
2022-09-01T10:54:01.831Z,26.15
2022-09-01T10:55:04.488Z,26.34
2022-09-01T10:56:20.016Z,26.09
2022-09-01T10:57:47.734Z,26.44
2022-09-01T11:00:36.996Z,26.49
2022-09-01T11:01:49.053Z,26.61
2022-09-01T11:04:30.936Z,26.84
2022-09-01T11:05:32.683Z,26.90
2022-09-01T11:06:42.350Z,26.96
2022-09-01T11:09:05.176Z,26.68
2022-09-01T11:10:42.603Z,26.85
2022-09-01T11:11:51.410Z,26.89
2022-09-01T11:13:15.751Z,27.03
2022-09-01T11:14:26.967Z,27.04
2022-09-01T11:15:40.468Z,27.26
2022-09-01T11:16:47.954Z,27.17
2022-09-01T11:17:45.823Z,27.42
2022-09-01T11:18:42.979Z,26.78
2022-09-01T11:19:47.490Z,26.42
2022-09-01T11:20:45.789Z,27.22
2022-09-01T11:21:44.314Z,27.30
2022-09-01T11:22:59.057Z,27.34
2022-09-01T11:24:33.099Z,27.50
2022-09-01T11:25:41.360Z,27.36
2022-09-01T11:26:48.239Z,27.45
2022-09-01T11:27:50.893Z,27.60
2022-09-01T11:28:48.159Z,27.46
2022-09-01T11:30:08.557Z,27.26
2022-09-01T11:31:06.511Z,27.58
2022-09-01T11:32:06.263Z,27.57
2022-09-01T11:33:39.942Z,27.63
2022-09-01T11:34:43.150Z,27.85
2022-09-01T11:35:40.179Z,27.83
2022-09-01T11:36:49.075Z,27.69
2022-09-01T11:37:52.126Z,27.69
2022-09-01T11:38:55.015Z,27.78
2022-09-01T11:40:02.230Z,27.73
2022-09-01T11:40:59.401Z,27.78
2022-09-01T11:42:21.117Z,27.67
2022-09-01T11:43:19.347Z,27.55
2022-09-01T11:44:24.005Z,27.53
2022-09-01T11:45:34.458Z,27.36
2022-09-01T11:46:35.930Z,27.25
2022-09-01T11:47:39.170Z,27.23
2022-09-01T11:48:36.907Z,27.30
2022-09-01T11:49:37.602Z,26.88
2022-09-01T11:50:37.354Z,27.20
2022-09-01T11:51:47.279Z,26.87
2022-09-01T11:53:04.940Z,27.16
2022-09-01T11:54:02.342Z,27.13
2022-09-01T11:55:00.222Z,27.19
2022-09-01T11:56:14.903Z,27.09
2022-09-01T11:57:39.065Z,27.14
2022-09-01T11:58:39.360Z,27.14
2022-09-01T11:59:38.575Z,27.14
2022-09-01T12:00:39.211Z,27.18
2022-09-01T12:01:38.810Z,26.77
2022-09-01T12:02:43.573Z,26.99
2022-09-01T12:03:41.193Z,26.96
2022-09-01T12:04:40.031Z,26.92
2022-09-01T12:05:39.096Z,26.30
2022-09-01T12:06:35.911Z,27.21
2022-09-01T12:07:41.693Z,27.26
2022-09-01T12:08:50.727Z,27.26
2022-09-01T12:09:48.116Z,27.20
2022-09-01T12:10:46.970Z,26.94
2022-09-01T12:11:43.714Z,26.96
2022-09-01T12:12:40.582Z,26.87
2022-09-01T12:13:39.666Z,27.02
2022-09-01T12:15:02.082Z,27.01
2022-09-01T12:16:18.536Z,27.03
2022-09-01T12:17:20.896Z,26.37
2022-09-01T12:18:23.161Z,27.32
2022-09-01T12:19:39.428Z,26.92
2022-09-01T12:20:41.160Z,27.35
2022-09-01T12:21:42.941Z,27.12
2022-09-01T12:22:43.031Z,27.49
2022-09-01T12:23:43.351Z,27.59
2022-09-01T12:24:46.028Z,27.61
2022-09-01T12:25:43.063Z,27.50
2022-09-01T12:26:41.622Z,27.16
2022-09-01T12:27:38.466Z,27.63
2022-09-01T12:28:41.331Z,27.70
2022-09-01T12:29:38.943Z,27.73
2022-09-01T12:30:39.498Z,27.71
2022-09-01T12:31:36.478Z,27.71
2022-09-01T12:32:33.556Z,27.70
2022-09-01T12:33:31.597Z,27.73
2022-09-01T12:34:34.341Z,27.77
2022-09-01T12:35:31.266Z,27.69
2022-09-01T12:36:29.635Z,27.77
2022-09-01T12:37:27.703Z,27.77
2022-09-01T12:38:26.248Z,27.77
2022-09-01T12:39:24.972Z,27.49
2022-09-01T12:40:32.141Z,27.89
2022-09-01T12:41:39.504Z,27.81
2022-09-01T12:42:41.159Z,28.01
2022-09-01T12:43:40.813Z,27.69
2022-09-01T12:44:37.513Z,28.15
2022-09-01T12:45:44.670Z,28.13
2022-09-01T12:46:43.840Z,28.10
2022-09-01T12:47:48.041Z,28.15
2022-09-01T12:48:45.108Z,28.14
2022-09-01T12:49:52.015Z,27.79
2022-09-01T12:50:50.870Z,27.93
2022-09-01T12:51:48.618Z,28.15
2022-09-01T12:52:58.259Z,28.09
2022-09-01T12:54:04.530Z,28.14
2022-09-01T12:55:02.691Z,27.93
2022-09-01T12:56:04.954Z,27.69
2022-09-01T12:57:01.882Z,27.99
2022-09-01T12:58:02.115Z,27.81
2022-09-01T12:59:26.210Z,27.97
2022-09-01T13:00:55.732Z,27.49
2022-09-01T13:01:53.763Z,27.64
2022-09-01T13:04:26.481Z,27.72
2022-09-01T13:05:34.621Z,27.84
2022-09-01T13:06:34.321Z,27.94
2022-09-01T13:07:31.134Z,27.74
2022-09-01T13:08:33.065Z,27.97
2022-09-01T13:09:30.101Z,27.96
2022-09-01T13:10:32.850Z,28.01
2022-09-01T13:12:49.222Z,27.82
2022-09-01T13:13:46.952Z,28.00
2022-09-01T13:14:43.746Z,27.89
2022-09-01T13:15:48.207Z,27.95
2022-09-01T13:16:46.386Z,27.90
2022-09-01T13:17:43.655Z,27.67
2022-09-01T13:20:00.047Z,27.73
2022-09-01T13:20:59.034Z,27.69
2022-09-01T13:21:55.783Z,27.90
2022-09-01T13:22:54.448Z,27.94
2022-09-01T13:23:52.575Z,27.84
2022-09-01T13:24:49.363Z,27.90
2022-09-01T13:25:47.586Z,27.69
2022-09-01T13:28:16.933Z,27.69
2022-09-01T13:29:13.879Z,28.01
2022-09-01T13:30:13.424Z,27.69
2022-09-01T13:32:27.118Z,27.43
2022-09-01T13:33:24.366Z,27.86
2022-09-01T13:34:24.024Z,28.07
2022-09-01T13:35:22.853Z,27.79
2022-09-01T13:37:36.575Z,28.06
2022-09-01T13:38:33.333Z,27.63
2022-09-01T13:39:30.080Z,27.97
2022-09-01T13:40:27.595Z,27.76
2022-09-01T13:41:24.578Z,27.94
2022-09-01T13:42:21.651Z,27.72
2022-09-01T13:43:22.281Z,27.81
2022-09-01T13:44:19.251Z,27.90
2022-09-01T13:45:18.695Z,27.84
2022-09-01T13:46:15.543Z,28.03
2022-09-01T13:49:02.432Z,27.84
2022-09-01T13:50:06.570Z,27.86